Time,TemperatureF,DewpointF,PressureIn,WindDirection,WindDirectionDegrees,WindSpeedMPH,WindSpeedGustMPH,Humidity,HourlyPrecipIn,Conditions,Clouds,dailyrainin,SoftwareType,DateUTC
2013-01-21 00:03:00,18.0,12.0,30.27,West,275,6.0,11.0,77,0.00,,,0.00,,2013-01-21 05:03:00,
2013-01-21 00:12:00,18.0,12.0,30.27,West,275,6.0,11.0,77,0.00,,,0.00,,2013-01-21 05:12:00,
2013-01-21 00:22:00,18.0,12.0,30.27,WNW,294,9.0,12.0,76,0.00,,,0.00,,2013-01-21 05:22:00,
2013-01-21 00:34:00,18.0,12.0,30.27,WNW,294,9.0,12.0,76,0.00,,,0.00,,2013-01-21 05:34:00,
2013-01-21 00:42:00,18.0,12.0,30.27,WNW,294,9.0,12.0,76,0.00,,,0.00,,2013-01-21 05:42:00,
2013-01-21 00:52:00,18.0,12.0,30.26,WNW,294,9.0,12.0,78,0.00,,,0.00,,2013-01-21 05:52:00,
2013-01-21 01:03:00,18.0,12.0,30.26,West,271,9.0,14.0,77,0.00,,,0.00,,2013-01-21 06:03:00,
2013-01-21 01:12:00,18.0,12.0,30.26,West,271,9.0,14.0,77,0.00,,,0.00,,2013-01-21 06:12:00,
2013-01-21 01:23:00,18.0,12.0,30.26,West,266,8.0,14.0,78,0.00,,,0.00,,2013-01-21 06:23:00,
2013-01-21 01:33:00,18.0,12.0,30.25,WNW,291,9.0,14.0,77,0.00,,,0.00,,2013-01-21 06:33:00,
2013-01-21 01:43:00,18.0,12.0,30.25,WNW,291,9.0,14.0,77,0.00,,,0.00,,2013-01-21 06:43:00,
2013-01-21 01:52:00,18.0,12.0,30.24,WNW,301,8.0,14.0,77,0.00,,,0.00,,2013-01-21 06:52:00,
2013-01-21 02:03:00,17.0,11.0,30.24,NW,313,11.0,16.0,76,0.00,,,0.00,,2013-01-21 07:03:00,
2013-01-21 02:13:00,17.0,11.0,30.24,NW,313,11.0,16.0,76,0.00,,,0.00,,2013-01-21 07:13:00,
2013-01-21 02:22:00,17.0,11.0,30.24,NW,315,10.0,15.0,78,0.00,,,0.00,,2013-01-21 07:22:00,
2013-01-21 02:33:00,17.0,11.0,30.24,WNW,302,9.0,13.0,78,0.00,,,0.00,,2013-01-21 07:33:00,
2013-01-21 02:42:00,17.0,11.0,30.24,WNW,302,9.0,13.0,78,0.00,,,0.00,,2013-01-21 07:42:00,
2013-01-21 02:52:00,17.0,12.0,30.25,West,279,11.0,15.0,79,0.00,,,0.00,,2013-01-21 07:52:00,
2013-01-21 03:03:00,16.0,10.0,30.25,WNW,286,10.0,16.0,77,0.00,,,0.00,,2013-01-21 08:03:00,
2013-01-21 03:13:00,16.0,10.0,30.25,WNW,286,10.0,16.0,77,0.00,,,0.00,,2013-01-21 08:13:00,
2013-01-21 03:23:00,16.0,11.0,30.25,West,281,9.0,14.0,79,0.00,,,0.00,,2013-01-21 08:23:00,
2013-01-21 03:32:00,15.0,10.0,30.25,WNW,288,10.0,15.0,80,0.00,,,0.00,,2013-01-21 08:32:00,
2013-01-21 03:42:00,15.0,10.0,30.25,WNW,288,10.0,15.0,80,0.00,,,0.00,,2013-01-21 08:42:00,
2013-01-21 03:53:00,15.0,10.0,30.24,WNW,298,9.0,16.0,80,0.00,,,0.00,,2013-01-21 08:53:00,
2013-01-21 04:03:00,15.0,10.0,30.24,WNW,293,10.0,14.0,81,0.00,,,0.00,,2013-01-21 09:03:00,
2013-01-21 04:12:00,15.0,10.0,30.24,WNW,293,10.0,14.0,81,0.00,,,0.00,,2013-01-21 09:12:00,
2013-01-21 04:23:00,15.0,10.0,30.24,WNW,303,12.0,17.0,80,0.00,,,0.00,,2013-01-21 09:23:00,
2013-01-21 04:33:00,15.0,10.0,30.23,WNW,299,9.0,14.0,81,0.00,,,0.00,,2013-01-21 09:33:00,
2013-01-21 04:42:00,15.0,10.0,30.23,WNW,299,9.0,14.0,81,0.00,,,0.00,,2013-01-21 09:42:00,
2013-01-21 04:53:00,15.0,10.0,30.23,NW,306,9.0,14.0,81,0.00,,,0.00,,2013-01-21 09:53:00,
2013-01-21 05:02:00,15.0,10.0,30.22,WNW,302,10.0,14.0,81,0.00,,,0.00,,2013-01-21 10:02:00,
2013-01-21 05:12:00,15.0,10.0,30.22,WNW,302,10.0,14.0,81,0.00,,,0.00,,2013-01-21 10:12:00,
2013-01-21 05:22:00,15.0,10.0,30.22,WNW,301,12.0,17.0,80,0.00,,,0.00,,2013-01-21 10:22:00,
2013-01-21 05:32:00,15.0,10.0,30.22,WNW,299,11.0,15.0,81,0.00,,,0.00,,2013-01-21 10:32:00,
2013-01-21 05:43:00,15.0,10.0,30.22,WNW,299,11.0,15.0,81,0.00,,,0.00,,2013-01-21 10:43:00,
2013-01-21 05:52:00,15.0,11.0,30.22,WNW,292,9.0,14.0,83,0.00,,,0.00,,2013-01-21 10:52:00,
2013-01-21 06:02:00,14.0,11.0,30.22,WNW,303,8.0,13.0,86,0.00,,,0.00,,2013-01-21 11:02:00,
2013-01-21 06:13:00,14.0,11.0,30.22,WNW,303,8.0,13.0,86,0.00,,,0.00,,2013-01-21 11:13:00,
2013-01-21 06:23:00,14.0,10.0,30.22,WNW,294,14.0,19.0,83,0.00,,,0.00,,2013-01-21 11:23:00,
2013-01-21 06:33:00,14.0,10.0,30.22,WNW,283,13.0,18.0,82,0.00,,,0.00,,2013-01-21 11:33:00,
2013-01-21 06:43:00,14.0,10.0,30.22,WNW,283,13.0,18.0,82,0.00,,,0.00,,2013-01-21 11:43:00,
2013-01-21 06:53:00,14.0,9.0,30.23,WNW,302,12.0,18.0,81,0.00,,,0.00,,2013-01-21 11:53:00,
2013-01-21 07:02:00,14.0,9.0,30.23,WNW,283,13.0,18.0,80,0.00,,,0.00,,2013-01-21 12:02:00,
2013-01-21 07:12:00,14.0,9.0,30.23,WNW,283,13.0,18.0,80,0.00,,,0.00,,2013-01-21 12:12:00,
2013-01-21 07:22:00,13.0,9.0,30.23,WNW,296,12.0,17.0,82,0.00,,,0.00,,2013-01-21 12:22:00,
2013-01-21 07:33:00,13.0,9.0,30.23,NW,304,8.0,14.0,82,0.00,,,0.00,,2013-01-21 12:33:00,
2013-01-21 07:42:00,13.0,9.0,30.23,NW,304,8.0,14.0,82,0.00,,,0.00,,2013-01-21 12:42:00,
2013-01-21 07:52:00,13.0,8.0,30.23,WNW,291,9.0,15.0,80,0.00,,,0.00,,2013-01-21 12:52:00,
2013-01-21 08:02:00,13.0,8.0,30.22,WNW,286,10.0,14.0,81,0.00,,,0.00,,2013-01-21 13:02:00,
2013-01-21 08:13:00,13.0,8.0,30.22,WNW,286,10.0,14.0,81,0.00,,,0.00,,2013-01-21 13:13:00,
2013-01-21 08:23:00,13.0,9.0,30.22,WNW,298,10.0,15.0,82,0.00,,,0.00,,2013-01-21 13:23:00,
2013-01-21 08:33:00,13.0,8.0,30.22,NW,311,11.0,17.0,81,0.00,,,0.00,,2013-01-21 13:33:00,
2013-01-21 08:43:00,13.0,8.0,30.22,NW,311,11.0,17.0,81,0.00,,,0.00,,2013-01-21 13:43:00,
2013-01-21 08:53:00,13.0,9.0,30.23,WNW,292,9.0,15.0,82,0.00,,,0.00,,2013-01-21 13:53:00,
2013-01-21 09:03:00,13.0,9.0,30.22,West,281,10.0,16.0,83,0.00,,,0.00,,2013-01-21 14:03:00,
2013-01-21 09:12:00,13.0,9.0,30.22,West,281,10.0,16.0,83,0.00,,,0.00,,2013-01-21 14:12:00,
2013-01-21 09:23:00,13.0,9.0,30.23,West,281,9.0,15.0,83,0.00,,,0.00,,2013-01-21 14:23:00,
2013-01-21 09:32:00,14.0,9.0,30.22,WNW,284,12.0,19.0,79,0.00,,,0.00,,2013-01-21 14:32:00,
2013-01-21 09:43:00,14.0,9.0,30.22,WNW,284,12.0,19.0,79,0.00,,,0.00,,2013-01-21 14:43:00,
2013-01-21 09:53:00,13.0,8.0,30.22,West,266,12.0,21.0,81,0.00,,,0.00,,2013-01-21 14:53:00,
2013-01-21 10:03:00,12.0,9.0,30.23,WNW,288,17.0,23.0,86,0.00,,,0.00,,2013-01-21 15:03:00,
2013-01-21 10:13:00,12.0,9.0,30.23,WNW,288,17.0,23.0,86,0.00,,,0.00,,2013-01-21 15:13:00,
2013-01-21 10:23:00,12.0,8.0,30.23,NW,305,16.0,23.0,82,0.00,,,0.00,,2013-01-21 15:23:00,
2013-01-21 10:33:00,13.0,8.0,30.24,WNW,284,16.0,23.0,81,0.00,,,0.00,,2013-01-21 15:33:00,
2013-01-21 10:43:00,13.0,8.0,30.24,WNW,284,16.0,23.0,81,0.00,,,0.00,,2013-01-21 15:43:00,
2013-01-21 10:53:00,13.0,7.0,30.24,NW,306,15.0,20.0,78,0.00,,,0.00,,2013-01-21 15:53:00,
2013-01-21 11:03:00,12.0,6.0,30.25,WNW,298,17.0,25.0,75,0.00,,,0.00,,2013-01-21 16:03:00,
2013-01-21 11:12:00,12.0,6.0,30.25,WNW,298,17.0,25.0,75,0.00,,,0.00,,2013-01-21 16:12:00,
2013-01-21 11:23:00,13.0,7.0,30.25,WNW,284,16.0,24.0,78,0.00,,,0.00,,2013-01-21 16:23:00,
2013-01-21 11:33:00,13.0,7.0,30.26,NNW,332,18.0,27.0,76,0.00,,,0.00,,2013-01-21 16:33:00,
2013-01-21 11:43:00,13.0,7.0,30.26,NNW,332,18.0,27.0,76,0.00,,,0.00,,2013-01-21 16:43:00,
2013-01-21 11:53:00,12.0,7.0,30.26,NW,313,14.0,22.0,80,0.00,,,0.00,,2013-01-21 16:53:00,
2013-01-21 12:02:00,13.0,6.0,30.26,WNW,283,17.0,25.0,74,0.00,,,0.00,,2013-01-21 17:02:00,
2013-01-21 12:12:00,13.0,6.0,30.26,WNW,283,17.0,25.0,74,0.00,,,0.00,,2013-01-21 17:12:00,
2013-01-21 12:23:00,13.0,6.0,30.26,WNW,294,16.0,26.0,72,0.00,,,0.00,,2013-01-21 17:23:00,
2013-01-21 12:33:00,14.0,7.0,30.26,NW,304,17.0,24.0,72,0.00,,,0.00,,2013-01-21 17:33:00,
2013-01-21 12:43:00,14.0,7.0,30.26,NW,304,17.0,24.0,72,0.00,,,0.00,,2013-01-21 17:43:00,
2013-01-21 12:53:00,13.0,5.0,30.25,WNW,292,19.0,26.0,69,0.00,,,0.00,,2013-01-21 17:53:00,
2013-01-21 13:03:00,13.0,2.0,30.25,WNW,299,19.0,24.0,62,0.00,,,0.00,,2013-01-21 18:03:00,
2013-01-21 13:12:00,13.0,2.0,30.25,WNW,299,19.0,24.0,62,0.00,,,0.00,,2013-01-21 18:12:00,
2013-01-21 13:22:00,13.0,3.0,30.25,WNW,286,16.0,25.0,65,0.00,,,0.00,,2013-01-21 18:22:00,
2013-01-21 13:33:00,13.0,3.0,30.24,NW,312,18.0,26.0,63,0.00,,,0.00,,2013-01-21 18:33:00,
2013-01-21 13:42:00,13.0,3.0,30.24,NW,312,18.0,26.0,63,0.00,,,0.00,,2013-01-21 18:42:00,
2013-01-21 13:52:00,13.0,1.0,30.24,NW,324,19.0,26.0,58,0.00,,,0.00,,2013-01-21 18:52:00,
2013-01-21 14:03:00,14.0,2.0,30.24,WNW,283,20.0,27.0,59,0.00,,,0.00,,2013-01-21 19:03:00,
2013-01-21 14:12:00,14.0,2.0,30.24,WNW,283,20.0,27.0,59,0.00,,,0.00,,2013-01-21 19:12:00,
2013-01-21 14:22:00,13.0,0.0,30.25,WNW,287,15.0,25.0,54,0.00,,,0.00,,2013-01-21 19:22:00,
2013-01-21 14:33:00,13.0,-1.0,30.25,West,279,18.0,27.0,52,0.00,,,0.00,,2013-01-21 19:33:00,
2013-01-21 14:43:00,13.0,-1.0,30.25,West,279,18.0,27.0,52,0.00,,,0.00,,2013-01-21 19:43:00,
2013-01-21 14:53:00,13.0,-1.0,30.25,West,279,18.0,27.0,52,0.00,,,0.00,,2013-01-21 19:53:00,
2013-01-21 15:03:00,14.0,0.0,30.26,WNW,296,17.0,26.0,54,0.00,,,0.00,,2013-01-21 20:03:00,
2013-01-21 15:12:00,14.0,0.0,30.26,WNW,296,17.0,26.0,54,0.00,,,0.00,,2013-01-21 20:12:00,
2013-01-21 15:23:00,13.0,0.0,30.26,NW,317,17.0,26.0,54,0.00,,,0.00,,2013-01-21 20:23:00,
2013-01-21 15:33:00,13.0,-1.0,30.26,WNW,302,18.0,24.0,53,0.00,,,0.00,,2013-01-21 20:33:00,
2013-01-21 15:43:00,13.0,-1.0,30.26,WNW,302,18.0,24.0,53,0.00,,,0.00,,2013-01-21 20:43:00,
2013-01-21 15:53:00,13.0,-1.0,30.26,WNW,302,18.0,24.0,53,0.00,,,0.00,,2013-01-21 20:53:00,
2013-01-21 16:03:00,13.0,-1.0,30.27,WNW,283,15.0,24.0,53,0.00,,,0.00,,2013-01-21 21:03:00,
2013-01-21 16:12:00,13.0,-1.0,30.27,WNW,283,15.0,24.0,53,0.00,,,0.00,,2013-01-21 21:12:00,
2013-01-21 16:23:00,13.0,0.0,30.27,WNW,301,14.0,23.0,54,0.00,,,0.00,,2013-01-21 21:23:00,
2013-01-21 16:33:00,12.0,-2.0,30.28,WNW,292,14.0,23.0,53,0.00,,,0.00,,2013-01-21 21:33:00,
2013-01-21 16:43:00,12.0,-2.0,30.28,WNW,292,14.0,23.0,53,0.00,,,0.00,,2013-01-21 21:43:00,
2013-01-21 16:53:00,12.0,-2.0,30.28,WNW,282,13.0,22.0,53,0.00,,,0.00,,2013-01-21 21:53:00,
2013-01-21 17:03:00,12.0,-2.0,30.29,WNW,296,15.0,21.0,52,0.00,,,0.00,,2013-01-21 22:03:00,
2013-01-21 17:12:00,12.0,-2.0,30.29,WNW,296,15.0,21.0,52,0.00,,,0.00,,2013-01-21 22:12:00,
2013-01-21 17:23:00,12.0,-1.0,30.29,NW,306,12.0,21.0,54,0.00,,,0.00,,2013-01-21 22:23:00,
2013-01-21 17:33:00,11.0,-2.0,30.29,WNW,301,14.0,20.0,54,0.00,,,0.00,,2013-01-21 22:33:00,
2013-01-21 17:43:00,11.0,-2.0,30.29,WNW,301,14.0,20.0,54,0.00,,,0.00,,2013-01-21 22:43:00,
2013-01-21 17:52:00,11.0,-2.0,30.29,WNW,303,11.0,18.0,54,0.00,,,0.00,,2013-01-21 22:52:00,
2013-01-21 18:03:00,11.0,-2.0,30.29,NW,315,11.0,19.0,55,0.00,,,0.00,,2013-01-21 23:03:00,
2013-01-21 18:12:00,11.0,-2.0,30.29,NW,315,11.0,19.0,55,0.00,,,0.00,,2013-01-21 23:12:00,
2013-01-21 18:23:00,10.0,-1.0,30.29,WNW,298,11.0,16.0,59,0.00,,,0.00,,2013-01-21 23:23:00,
2013-01-21 18:33:00,10.0,-1.0,30.29,WNW,285,12.0,16.0,60,0.00,,,0.00,,2013-01-21 23:33:00,
2013-01-21 18:42:00,10.0,-1.0,30.29,WNW,285,12.0,16.0,60,0.00,,,0.00,,2013-01-21 23:42:00,
2013-01-21 18:53:00,10.0,-1.0,30.29,West,267,11.0,17.0,61,0.00,,,0.00,,2013-01-21 23:53:00,
2013-01-21 19:02:00,10.0,0.0,30.30,West,279,12.0,16.0,62,0.00,,,0.00,,2013-01-22 00:02:00,
2013-01-21 19:12:00,10.0,0.0,30.30,West,279,12.0,16.0,62,0.00,,,0.00,,2013-01-22 00:12:00,
2013-01-21 19:22:00,9.0,-1.0,30.30,WNW,301,9.0,14.0,63,0.00,,,0.00,,2013-01-22 00:22:00,
2013-01-21 19:33:00,9.0,-1.0,30.30,WNW,292,10.0,14.0,63,0.00,,,0.00,,2013-01-22 00:33:00,
2013-01-21 19:43:00,9.0,-1.0,30.30,WNW,292,10.0,14.0,63,0.00,,,0.00,,2013-01-22 00:43:00,
2013-01-21 19:53:00,9.0,-1.0,30.30,WNW,292,10.0,14.0,63,0.00,,,0.00,,2013-01-22 00:53:00,
2013-01-21 20:02:00,9.0,-1.0,30.31,NW,307,11.0,16.0,63,0.00,,,0.00,,2013-01-22 01:02:00,
2013-01-21 20:12:00,9.0,-1.0,30.31,NW,307,11.0,16.0,63,0.00,,,0.00,,2013-01-22 01:12:00,
2013-01-21 20:23:00,9.0,-1.0,30.31,WNW,288,10.0,17.0,63,0.00,,,0.00,,2013-01-22 01:23:00,
2013-01-21 20:32:00,8.0,-2.0,30.32,WNW,299,10.0,16.0,64,0.00,,,0.00,,2013-01-22 01:32:00,
2013-01-21 20:42:00,8.0,-2.0,30.32,WNW,299,10.0,16.0,64,0.00,,,0.00,,2013-01-22 01:42:00,
2013-01-21 20:52:00,8.0,-2.0,30.32,West,279,11.0,16.0,64,0.00,,,0.00,,2013-01-22 01:52:00,
2013-01-21 21:02:00,8.0,-2.0,30.32,West,279,11.0,16.0,64,0.00,,,0.00,,2013-01-22 02:02:00,
2013-01-21 21:12:00,8.0,-2.0,30.32,West,279,11.0,16.0,64,0.00,,,0.00,,2013-01-22 02:12:00,
2013-01-21 21:22:00,8.0,0.0,30.32,West,265,10.0,14.0,69,0.00,,,0.00,,2013-01-22 02:22:00,
2013-01-21 21:32:00,8.0,0.0,30.33,WNW,291,11.0,17.0,70,0.00,,,0.00,,2013-01-22 02:32:00,
2013-01-21 21:43:00,8.0,0.0,30.33,WNW,291,11.0,17.0,70,0.00,,,0.00,,2013-01-22 02:43:00,
2013-01-21 21:53:00,8.0,0.0,30.33,WNW,291,11.0,17.0,70,0.00,,,0.00,,2013-01-22 02:53:00,
2013-01-21 22:02:00,7.0,-1.0,30.34,WNW,292,11.0,18.0,69,0.00,,,0.00,,2013-01-22 03:02:00,
2013-01-21 22:12:00,7.0,-1.0,30.34,WNW,292,11.0,18.0,69,0.00,,,0.00,,2013-01-22 03:12:00,
2013-01-21 22:22:00,7.0,-1.0,30.35,WNW,297,12.0,17.0,69,0.00,,,0.00,,2013-01-22 03:22:00,
2013-01-21 22:32:00,7.0,-1.0,30.35,WNW,297,11.0,17.0,70,0.00,,,0.00,,2013-01-22 03:32:00,
2013-01-21 22:42:00,7.0,-1.0,30.35,WNW,297,11.0,17.0,70,0.00,,,0.00,,2013-01-22 03:42:00,
2013-01-21 22:52:00,7.0,0.0,30.35,WNW,297,10.0,17.0,71,0.00,,,0.00,,2013-01-22 03:52:00,
2013-01-21 23:02:00,6.0,-1.0,30.35,WNW,289,13.0,17.0,72,0.00,,,0.00,,2013-01-22 04:02:00,
2013-01-21 23:12:00,6.0,-1.0,30.35,WNW,289,13.0,17.0,72,0.00,,,0.00,,2013-01-22 04:12:00,
2013-01-21 23:22:00,6.0,-1.0,30.36,WNW,297,14.0,21.0,72,0.00,,,0.00,,2013-01-22 04:22:00,
2013-01-21 23:32:00,6.0,-1.0,30.36,WNW,287,14.0,19.0,73,0.00,,,0.00,,2013-01-22 04:32:00,
2013-01-21 23:42:00,6.0,-1.0,30.36,WNW,287,14.0,19.0,73,0.00,,,0.00,,2013-01-22 04:42:00,
2013-01-21 23:52:00,6.0,0.0,30.36,WNW,298,13.0,18.0,75,0.00,,,0.00,,2013-01-22 04:52:00,